Time;durP1;ratioP1;P1;durP2;ratioP2;P2;SDS_P1;SDS_P2;PMS_P1;PMS_P2;Temp;Humidity;BMP_temperature;BMP_pressure;BME280_temperature;BME280_humidity;BME280_pressure;Samples;Min_cycle;Max_cycle;Signal;HPM_P1;HPM_P2
2024/03/03 00:01:03;;;;;;;30.73;20.80;;;5.50;99.90;;;4.90;100.00;96471.19;5051773;28;20456;-78
2024/03/03 00:03:30;;;;;;;28.50;21.33;;;5.60;99.90;;;4.62;100.00;96426.91;5060445;28;20468;-86
2024/03/03 00:05:57;;;;;;;30.83;21.13;;;5.70;99.90;;;4.92;100.00;96502.06;5057640;28;20539;-84
2024/03/03 00:08:25;;;;;;;30.87;21.03;;;5.60;99.90;;;4.86;100.00;96502.94;5072645;28;21093;-81
2024/03/03 00:10:52;;;;;;;26.70;19.67;;;5.50;99.90;;;4.63;100.00;96492.78;5069165;28;20448;-84
2024/03/03 00:13:21;;;;;;;28.33;21.53;;;5.40;99.90;;;4.73;100.00;96513.72;5078691;28;20464;-82
2024/03/03 00:15:50;;;;;;;29.53;20.63;;;5.20;99.90;;;4.58;100.00;96505.97;5065676;28;20462;-83
2024/03/03 00:18:17;;;;;;;30.43;21.80;;;5.20;99.90;;;4.45;100.00;96513.00;5069229;28;20456;-82
2024/03/03 00:20:45;;;;;;;32.10;22.40;;;5.10;99.90;;;4.40;100.00;96526.22;5070937;28;20476;-80
2024/03/03 00:23:12;;;;;;;26.67;20.80;;;5.00;99.90;;;4.48;100.00;96527.81;5078954;28;20436;-80
2024/03/03 00:25:39;;;;;;;28.90;21.03;;;5.00;99.90;;;4.57;100.00;96525.72;5073350;28;20521;-78
2024/03/03 00:28:07;;;;;;;29.33;20.83;;;5.10;99.90;;;4.44;100.00;96526.63;5087832;28;20440;-81
2024/03/03 00:30:35;;;;;;;31.60;22.93;;;5.00;99.90;;;4.35;100.00;96534.88;5089212;28;20456;-79
2024/03/03 00:33:03;;;;;;;37.30;22.43;;;4.90;99.90;;;4.27;100.00;96531.59;5089777;28;20522;-77
2024/03/03 00:35:30;;;;;;;29.90;21.83;;;4.80;99.90;;;4.25;100.00;96519.28;5087831;28;20490;-83
2024/03/03 00:37:57;;;;;;;31.40;21.97;;;4.80;99.90;;;4.43;100.00;96512.41;5075666;28;20482;-83
2024/03/03 00:40:25;;;;;;;30.47;21.33;;;5.00;99.90;;;4.58;100.00;96517.50;5059299;28;20527;-84
2024/03/03 00:42:52;;;;;;;30.50;21.03;;;5.10;99.90;;;4.53;100.00;96512.78;5065904;28;20453;-86
2024/03/03 00:45:19;;;;;;;28.90;21.47;;;5.10;99.90;;;4.54;100.00;96517.09;5068541;28;20456;-80
2024/03/03 00:47:48;;;;;;;37.67;24.30;;;5.20;99.90;;;4.39;100.00;96535.25;5078878;28;20510;-82
2024/03/03 00:50:16;;;;;;;28.93;21.00;;;5.00;99.90;;;4.21;100.00;96533.28;5088959;28;20466;-78
2024/03/03 00:52:43;;;;;;;31.17;22.40;;;4.90;99.90;;;4.18;100.00;96534.53;5068155;28;20457;-84
2024/03/03 00:55:11;;;;;;;32.27;22.50;;;4.80;99.90;;;4.05;100.00;96542.59;5051287;28;20859;-84
2024/03/03 00:57:40;;;;;;;33.90;23.33;;;4.70;99.90;;;4.10;100.00;96537.44;5063939;28;20507;-84
2024/03/03 01:00:09;;;;;;;34.80;24.00;;;4.60;99.90;;;4.12;100.00;96538.03;5066477;28;20480;-85
2024/03/03 01:02:36;;;;;;;31.63;21.30;;;4.60;99.90;;;4.26;100.00;96533.47;5053294;28;20481;-84
2024/03/03 01:05:06;;;;;;;32.23;22.10;;;4.80;99.90;;;4.18;100.00;96533.69;5058226;28;20461;-82
2024/03/03 01:07:33;;;;;;;28.20;20.63;;;4.80;99.90;;;4.17;100.00;96532.91;5059194;28;20461;-82
2024/03/03 01:10:01;;;;;;;30.80;22.23;;;4.70;99.90;;;4.16;100.00;96525.88;5072784;28;20452;-81
2024/03/03 01:12:30;;;;;;;33.50;21.77;;;4.70;99.90;;;4.12;100.00;96503.28;5077652;28;20481;-81
2024/03/03 01:14:58;;;;;;;32.60;21.70;;;4.80;99.90;;;4.13;100.00;96504.91;5066199;28;20461;-79
2024/03/03 01:17:25;;;;;;;33.90;23.30;;;4.80;99.90;;;4.19;100.00;96509.44;5065903;28;20956;-83
2024/03/03 01:19:53;;;;;;;35.53;21.63;;;4.90;99.90;;;4.20;100.00;96521.78;5060972;28;20492;-83
2024/03/03 01:22:21;;;;;;;32.00;21.63;;;4.90;99.90;;;4.10;100.00;96505.34;5063475;28;20454;-81
2024/03/03 01:24:48;;;;;;;32.03;22.30;;;4.80;99.90;;;4.14;100.00;96493.19;5060052;28;20452;-82
2024/03/03 01:27:16;;;;;;;30.70;20.97;;;4.90;99.90;;;4.04;100.00;96468.78;5058785;28;21034;-82
2024/03/03 01:29:43;;;;;;;28.70;21.73;;;4.90;99.90;;;4.01;100.00;96461.16;5068907;28;20452;-82
2024/03/03 01:32:11;;;;;;;30.40;22.40;;;4.90;99.90;;;4.15;100.00;96480.66;5060039;28;20449;-82
2024/03/03 01:34:38;;;;;;;33.80;22.73;;;4.90;99.90;;;3.96;100.00;96443.91;5083149;28;20465;-82
2024/03/03 01:37:05;;;;;;;34.47;23.27;;;4.80;99.90;;;3.97;100.00;96456.25;5063195;28;20445;-83
2024/03/03 01:39:36;;;;;;;33.77;22.67;;;4.80;99.90;;;4.11;100.00;96472.25;5060666;28;20517;-80
2024/03/03 01:42:04;;;;;;;35.33;22.73;;;4.80;99.90;;;4.06;100.00;96483.56;5071111;28;20464;-81
2024/03/03 01:44:31;;;;;;;35.03;23.77;;;4.80;99.90;;;4.09;100.00;96472.47;5075185;28;20459;-80
2024/03/03 01:46:58;;;;;;;34.60;23.07;;;4.80;99.90;;;4.11;100.00;96458.88;5065158;28;20450;-81
2024/03/03 01:49:26;;;;;;;36.07;23.50;;;4.80;99.90;;;4.01;100.00;96445.97;5077969;28;20460;-84
2024/03/03 01:51:54;;;;;;;35.47;24.30;;;4.80;99.90;;;3.99;100.00;96452.53;5065801;28;20456;-82
2024/03/03 01:54:21;;;;;;;34.80;22.93;;;4.70;99.90;;;3.91;100.00;96443.75;5060392;28;20451;-80
2024/03/03 01:56:51;;;;;;;32.70;21.27;;;4.70;99.90;;;3.98;100.00;96449.06;5063599;28;20461;-81
2024/03/03 01:59:18;;;;;;;32.37;23.07;;;4.70;99.90;;;3.90;100.00;96441.28;5062089;28;20521;-83
2024/03/03 02:01:47;;;;;;;32.07;21.97;;;4.60;99.90;;;3.73;100.00;96406.22;5065401;28;20456;-82
2024/03/03 02:04:15;;;;;;;36.53;23.57;;;4.70;99.90;;;3.55;100.00;96372.97;5059721;28;20457;-82
2024/03/03 02:06:43;;;;;;;34.80;23.57;;;4.70;99.90;;;3.99;100.00;96440.00;5061893;28;20449;-83
2024/03/03 02:09:12;;;;;;;35.03;23.00;;;4.70;99.90;;;3.97;100.00;96431.41;5080207;28;20479;-83
2024/03/03 02:11:40;;;;;;;33.83;23.00;;;4.70;99.90;;;3.99;100.00;96434.66;5060753;28;20836;-81
2024/03/03 02:14:08;;;;;;;35.40;22.23;;;4.80;99.90;;;4.03;100.00;96427.06;5061293;28;20459;-82
2024/03/03 02:16:35;;;;;;;38.27;22.60;;;4.80;99.90;;;3.90;100.00;96428.75;5066957;28;20453;-81
2024/03/03 02:19:03;;;;;;;32.80;22.40;;;4.70;99.90;;;4.01;100.00;96427.25;5080487;28;20461;-82
2024/03/03 02:21:31;;;;;;;38.23;24.37;;;4.80;99.90;;;4.04;100.00;96426.03;5068355;28;20480;-81
2024/03/03 02:23:58;;;;;;;36.90;23.93;;;4.80;99.90;;;3.57;100.00;96354.06;5066141;28;20464;-80
2024/03/03 02:26:27;;;;;;;39.00;24.97;;;4.80;99.90;;;4.02;100.00;96407.50;5058670;28;20452;-83
2024/03/03 02:28:56;;;;;;;37.70;25.73;;;4.80;99.90;;;4.03;100.00;96408.34;5060277;28;20486;-84
2024/03/03 02:31:25;;;;;;;36.90;25.47;;;4.80;99.90;;;4.01;100.00;96410.38;5063190;28;20474;-81
2024/03/03 02:33:52;;;;;;;39.80;25.57;;;4.80;99.90;;;4.04;100.00;96405.44;5064793;28;20456;-83
2024/03/03 02:36:19;;;;;;;40.23;24.57;;;4.80;99.90;;;4.07;100.00;96412.22;5075076;28;20455;-77
2024/03/03 02:38:50;;;;;;;39.33;25.53;;;4.90;99.90;;;4.02;100.00;96406.69;5085265;28;20449;-77
2024/03/03 02:41:17;;;;;;;43.70;24.97;;;4.90;99.90;;;4.06;100.00;96399.91;5083696;28;20860;-75
2024/03/03 02:43:45;;;;;;;40.27;24.20;;;4.80;99.90;;;4.05;100.00;96411.63;5082371;28;20452;-76
2024/03/03 02:46:13;;;;;;;34.70;25.37;;;4.90;99.90;;;4.02;100.00;96406.69;5078588;28;20492;-79
2024/03/03 02:48:41;;;;;;;36.90;24.07;;;4.90;99.90;;;4.06;100.00;96402.56;5079891;28;21342;-84
2024/03/03 02:51:08;;;;;;;40.10;27.03;;;4.80;99.90;;;4.05;100.00;96396.38;5063383;28;20475;-80
2024/03/03 02:53:35;;;;;;;43.77;28.77;;;4.90;99.90;;;4.02;100.00;96390.66;5064281;28;20468;-85
2024/03/03 02:56:07;;;;;;;41.77;26.40;;;4.90;99.90;;;4.05;100.00;96392.91;5074898;28;20449;-83
2024/03/03 02:58:34;;;;;;;44.23;25.47;;;4.90;99.90;;;4.03;100.00;96392.31;5062584;28;20449;-85
2024/03/03 03:01:02;;;;;;;39.63;27.00;;;4.90;99.90;;;4.03;100.00;96386.97;5065426;28;21332;-85
2024/03/03 03:03:31;;;;;;;36.90;26.67;;;4.80;99.90;;;3.80;100.00;96358.91;5055716;28;20579;-85
2024/03/03 03:05:58;;;;;;;45.77;26.53;;;4.80;99.90;;;3.93;100.00;96393.56;5055778;28;20970;-80
2024/03/03 03:08:25;;;;;;;40.00;26.40;;;4.80;99.90;;;3.99;100.00;96385.72;5063020;28;20448;-84
2024/03/03 03:10:54;;;;;;;43.63;26.17;;;4.80;99.90;;;3.98;100.00;96390.28;5062966;28;20449;-83
2024/03/03 03:13:22;;;;;;;44.83;27.43;;;4.90;99.90;;;4.03;100.00;96381.63;5077362;28;20456;-83
2024/03/03 03:15:50;;;;;;;41.70;25.77;;;4.90;99.90;;;4.06;100.00;96383.88;5057314;28;20718;-80
2024/03/03 03:18:17;;;;;;;39.57;27.40;;;4.90;99.90;;;4.05;100.00;96382.22;5062725;28;21009;-82
2024/03/03 03:20:45;;;;;;;37.83;25.17;;;4.90;99.90;;;4.05;100.00;96377.69;5061974;28;20592;-80
2024/03/03 03:23:12;;;;;;;42.00;25.77;;;4.80;99.90;;;3.90;100.00;96361.94;5061688;28;20457;-81
2024/03/03 03:25:40;;;;;;;43.07;25.43;;;4.90;99.90;;;3.91;100.00;96374.28;5062602;28;20459;-81
2024/03/03 03:28:08;;;;;;;46.90;27.30;;;4.80;99.90;;;3.90;100.00;96391.34;5076533;28;20452;-84
2024/03/03 03:30:36;;;;;;;42.67;25.70;;;4.70;99.90;;;3.95;100.00;96380.81;5058087;28;20452;-82
2024/03/03 03:33:04;;;;;;;39.00;25.20;;;4.70;99.90;;;3.89;100.00;96381.69;5055591;28;20460;-82
2024/03/03 03:35:32;;;;;;;44.80;27.30;;;4.70;99.90;;;3.48;100.00;96318.78;5064102;28;20448;-83
2024/03/03 03:37:59;;;;;;;47.87;26.53;;;4.70;99.90;;;3.43;100.00;96313.25;5064303;28;21051;-79
2024/03/03 03:40:27;;;;;;;42.13;25.67;;;4.70;99.90;;;3.97;100.00;96394.78;5061957;28;20567;-87
2024/03/03 03:42:54;;;;;;;42.33;23.93;;;4.70;99.90;;;3.78;100.00;96374.34;5065347;28;20480;-86
2024/03/03 03:45:22;;;;;;;43.13;27.00;;;4.60;99.90;;;4.01;100.00;96405.88;5072688;28;20460;-84
2024/03/03 03:47:50;;;;;;;43.27;26.80;;;4.70;99.90;;;3.80;100.00;96401.66;5062618;28;20459;-81
2024/03/03 03:50:17;;;;;;;43.87;25.83;;;4.60;99.90;;;3.79;100.00;96418.72;5070675;28;20456;-82
2024/03/03 03:52:45;;;;;;;36.00;24.00;;;4.50;99.90;;;3.86;100.00;96422.16;5068536;28;21272;-81
2024/03/03 03:55:12;;;;;;;43.57;26.73;;;4.60;99.90;;;3.75;100.00;96422.84;5063206;28;20460;-85
2024/03/03 03:57:40;;;;;;;39.77;25.70;;;4.50;99.90;;;3.76;100.00;96413.81;5072858;28;20913;-81
2024/03/03 04:00:10;;;;;;;44.93;25.73;;;4.60;99.90;;;3.74;100.00;96426.56;5067015;28;20465;-82
2024/03/03 04:02:37;;;;;;;40.70;26.10;;;4.50;99.90;;;3.51;100.00;96396.63;5073084;28;20498;-81
2024/03/03 04:05:06;;;;;;;40.90;25.27;;;4.50;99.90;;;3.66;100.00;96425.75;5062970;28;20762;-80
2024/03/03 04:07:33;;;;;;;40.40;25.27;;;4.50;99.90;;;3.58;100.00;96417.13;5070602;28;20485;-83
2024/03/03 04:10:03;;;;;;;42.43;24.90;;;4.40;99.90;;;3.58;100.00;96419.81;5080075;28;20457;-80
2024/03/03 04:12:30;;;;;;;43.57;24.60;;;4.30;99.90;;;3.61;100.00;96425.56;5078608;28;20485;-81
2024/03/03 04:14:58;;;;;;;39.00;25.07;;;4.30;99.90;;;3.56;100.00;96433.34;5066858;28;20824;-80
2024/03/03 04:17:25;;;;;;;41.67;25.93;;;4.30;99.90;;;3.56;100.00;96437.91;5068896;28;20441;-82
2024/03/03 04:19:52;;;;;;;41.73;25.53;;;4.20;99.90;;;3.42;100.00;96429.91;5067732;28;20542;-81
2024/03/03 04:22:22;;;;;;;41.00;25.27;;;4.10;99.90;;;3.55;100.00;96418.38;5067618;28;20449;-82
2024/03/03 04:24:49;;;;;;;34.30;23.20;;;4.20;99.90;;;3.65;100.00;96424.09;5066912;28;21156;-83
2024/03/03 04:27:17;;;;;;;38.70;23.80;;;4.30;99.90;;;3.66;100.00;96417.72;5066161;28;20456;-80
2024/03/03 04:29:48;;;;;;;35.07;23.27;;;4.30;99.90;;;3.67;100.00;96416.69;5061894;28;20475;-83
2024/03/03 04:32:17;;;;;;;40.97;24.00;;;4.40;99.90;;;3.66;100.00;96416.91;5058311;28;21375;-85
2024/03/03 04:34:44;;;;;;;36.57;23.57;;;4.40;99.90;;;3.61;100.00;96409.53;5065257;28;20464;-83
2024/03/03 04:37:11;;;;;;;36.30;24.00;;;4.40;99.90;;;3.67;100.00;96399.84;5068830;28;20952;-82
2024/03/03 04:39:40;;;;;;;41.73;25.77;;;4.40;99.90;;;3.66;100.00;96409.72;5072230;28;20459;-83
2024/03/03 04:42:08;;;;;;;38.93;24.20;;;4.40;99.90;;;3.46;100.00;96411.63;5071963;28;20488;-81
2024/03/03 04:44:35;;;;;;;39.77;24.43;;;4.30;99.90;;;3.54;100.00;96411.38;5079173;28;20518;-82
2024/03/03 04:47:03;;;;;;;40.03;25.00;;;4.20;99.90;;;3.68;100.00;96412.19;5068296;28;20456;-82
2024/03/03 04:49:31;;;;;;;37.83;25.00;;;4.30;99.90;;;3.68;100.00;96415.66;5078195;28;20440;-77
2024/03/03 04:51:57;;;;;;;43.70;24.60;;;4.40;99.90;;;3.68;100.00;96401.50;5086776;28;20459;-77
2024/03/03 04:54:24;;;;;;;37.70;24.90;;;4.40;99.90;;;3.57;100.00;96418.16;5090945;28;20449;-76
2024/03/03 04:56:52;;;;;;;43.93;27.20;;;4.30;99.90;;;3.49;100.00;96408.53;5086689;28;20475;-76
2024/03/03 04:59:19;;;;;;;44.00;27.50;;;4.30;99.90;;;3.44;100.00;96429.72;5084383;28;20934;-82
2024/03/03 05:01:47;;;;;;;38.17;25.10;;;4.20;99.90;;;3.34;100.00;96417.59;5070793;28;20479;-78
2024/03/03 05:04:14;;;;;;;41.67;27.03;;;4.10;99.90;;;3.45;100.00;96429.50;5064725;28;20456;-77
2024/03/03 05:06:45;;;;;;;42.60;26.13;;;4.10;99.90;;;3.42;100.00;96423.78;5065301;28;20484;-81
2024/03/03 05:09:12;;;;;;;43.20;26.90;;;4.10;99.90;;;3.38;100.00;96434.03;5063172;28;20547;-81
2024/03/03 05:11:39;;;;;;;39.77;26.33;;;4.10;99.90;;;3.34;100.00;96433.63;5070450;28;20451;-77
2024/03/03 05:14:08;;;;;;;46.00;27.23;;;4.00;99.90;;;3.41;100.00;96428.28;5061733;28;20461;-80
2024/03/03 05:16:35;;;;;;;38.77;26.40;;;4.00;99.90;;;3.33;100.00;96431.97;5069269;28;20460;-83
2024/03/03 05:19:04;;;;;;;46.13;28.53;;;4.00;99.90;;;3.40;100.00;96426.63;5067176;28;20961;-82
2024/03/03 05:21:31;;;;;;;45.47;28.03;;;4.00;99.90;;;3.57;100.00;96420.84;5061178;28;20500;-80
2024/03/03 05:23:58;;;;;;;44.80;27.17;;;4.20;99.90;;;3.53;100.00;96426.59;5051957;28;20460;-79
2024/03/03 05:26:26;;;;;;;43.37;28.27;;;4.20;99.90;;;3.59;100.00;96430.28;5063335;28;20457;-82
2024/03/03 05:28:54;;;;;;;37.27;26.57;;;4.20;99.90;;;3.53;100.00;96425.78;5077188;28;20842;-82
2024/03/03 05:31:22;;;;;;;43.73;26.80;;;4.20;99.90;;;3.45;100.00;96418.81;5082200;28;20460;-84
2024/03/03 05:33:49;;;;;;;43.27;26.60;;;4.20;99.90;;;3.46;100.00;96416.97;5077316;28;20449;-79
2024/03/03 05:36:17;;;;;;;56.10;29.50;;;4.10;99.90;;;3.45;100.00;96413.47;5073851;28;20518;-81
2024/03/03 05:38:44;;;;;;;42.37;27.17;;;4.20;99.90;;;3.36;100.00;96434.22;5070288;28;20455;-82
2024/03/03 05:41:13;;;;;;;43.63;27.07;;;4.10;99.90;;;3.35;100.00;96419.25;5050148;28;20472;-80
2024/03/03 05:43:40;;;;;;;45.80;28.30;;;4.10;99.90;;;3.56;100.00;96417.34;5047327;28;20945;-82
2024/03/03 05:46:07;;;;;;;44.77;27.70;;;4.20;99.90;;;3.63;100.00;96419.97;5061501;28;20453;-87
2024/03/03 05:48:36;;;;;;;46.43;28.83;;;4.30;99.90;;;3.67;100.00;96414.03;5065993;28;20534;-88
2024/03/03 05:51:03;;;;;;;46.70;28.70;;;4.40;99.90;;;3.69;100.00;96417.28;5068181;28;20797;-87
2024/03/03 05:53:31;;;;;;;48.23;29.87;;;4.40;99.90;;;3.67;100.00;96410.53;5066199;28;20451;-84
2024/03/03 05:55:58;;;;;;;48.93;29.87;;;4.40;99.90;;;3.69;100.00;96414.63;5074255;28;20465;-77
2024/03/03 05:58:25;;;;;;;46.37;28.57;;;4.40;99.90;;;3.78;100.00;96414.41;5069333;28;20448;-83
2024/03/03 06:00:52;;;;;;;52.73;33.23;;;4.50;99.90;;;3.76;100.00;96403.13;5064232;28;20555;-83
2024/03/03 06:03:20;;;;;;;53.87;32.97;;;4.60;99.90;;;3.87;100.00;96415.81;5065383;28;20468;-82
2024/03/03 06:05:48;;;;;;;56.87;33.13;;;4.60;99.90;;;3.81;100.00;96412.13;5067042;28;20846;-81
2024/03/03 06:08:16;;;;;;;54.30;33.23;;;4.60;99.90;;;3.88;100.00;96413.94;5056490;28;20475;-83
2024/03/03 06:10:43;;;;;;;57.23;33.20;;;4.60;99.90;;;3.89;100.00;96412.91;5055240;28;20566;-81
2024/03/03 06:13:11;;;;;;;60.63;34.20;;;4.70;99.90;;;3.93;100.00;96409.63;5063088;28;21105;-81
2024/03/03 06:15:39;;;;;;;52.90;33.10;;;4.70;99.90;;;3.91;100.00;96409.00;5062500;28;20820;-82
2024/03/03 06:18:07;;;;;;;53.07;32.87;;;4.70;99.90;;;3.95;100.00;96406.75;5064840;28;20463;-81
2024/03/03 06:20:34;;;;;;;56.43;32.50;;;4.70;99.90;;;3.95;100.00;96418.22;5060016;28;20445;-82
2024/03/03 06:23:04;;;;;;;49.87;32.03;;;4.80;99.90;;;4.01;100.00;96429.94;5060071;28;20461;-78
2024/03/03 06:25:32;;;;;;;51.57;30.60;;;4.70;99.90;;;3.98;100.00;96449.06;5055560;28;20976;-83
2024/03/03 06:27:59;;;;;;;58.37;33.97;;;4.70;99.90;;;4.02;100.00;96431.56;5059195;28;20480;-80
2024/03/03 06:30:27;;;;;;;54.73;30.63;;;4.70;99.90;;;4.10;100.00;96434.00;5082736;28;21042;-82
2024/03/03 06:32:54;;;;;;;50.47;31.57;;;4.70;99.90;;;4.06;100.00;96429.31;5060946;28;20491;-83
2024/03/03 06:35:24;;;;;;;56.30;32.30;;;4.80;99.90;;;4.07;100.00;96426.41;5058777;28;20453;-78
2024/03/03 06:37:53;;;;;;;48.73;31.20;;;4.80;99.90;;;4.14;100.00;96426.38;5051789;28;20542;-86
2024/03/03 06:40:22;;;;;;;50.00;31.07;;;4.80;99.90;;;4.27;100.00;96424.66;5060140;28;20480;-85
2024/03/03 06:42:49;;;;;;;48.73;29.63;;;4.90;99.90;;;4.43;100.00;96428.69;5058852;28;20527;-80
2024/03/03 06:45:16;;;;;;;53.37;31.87;;;5.00;99.90;;;4.37;100.00;96422.34;5053215;28;20461;-85
2024/03/03 06:47:43;;;;;;;51.50;31.87;;;5.00;99.90;;;4.51;100.00;96436.44;5057910;28;20488;-79
2024/03/03 06:50:11;;;;;;;55.67;32.27;;;5.10;99.90;;;4.46;100.00;96445.13;5061139;28;20453;-88
2024/03/03 06:52:40;;;;;;;47.00;30.20;;;5.10;99.90;;;4.43;100.00;96444.75;5062604;28;20499;-83
2024/03/03 06:55:09;;;;;;;50.53;29.80;;;5.10;99.90;;;4.38;100.00;96450.72;5060826;28;20457;-81
2024/03/03 06:57:37;;;;;;;48.93;29.53;;;5.10;99.90;;;4.29;100.00;96427.94;5080730;28;20824;-82
2024/03/03 07:00:09;;;;;;;43.00;28.10;;;5.10;99.90;;;4.50;100.00;96446.34;5059727;28;20457;-86
2024/03/03 07:05:21;;;;;;;48.90;30.40;;;5.20;99.90;;;4.68;100.00;96452.81;5061351;28;20518;-67
2024/03/03 07:07:49;;;;;;;49.53;29.73;;;5.30;99.90;;;4.86;100.00;96441.38;5061693;28;20456;-69
2024/03/03 07:10:16;;;;;;;50.57;30.67;;;5.40;99.90;;;5.04;100.00;96442.47;5056407;28;20460;-67
2024/03/03 07:12:45;;;;;;;45.07;29.60;;;5.50;99.90;;;4.92;100.00;96426.28;5062539;28;20457;-67
2024/03/03 07:15:13;;;;;;;44.30;29.10;;;5.60;99.90;;;4.99;100.00;96436.94;5036953;28;20465;-69
2024/03/03 07:17:43;;;;;;;40.17;27.43;;;5.60;99.90;;;5.03;100.00;96440.81;5058208;28;20491;-68
2024/03/03 07:20:11;;;;;;;43.80;28.00;;;5.60;99.90;;;4.64;100.00;96393.56;5050614;28;20466;-68
2024/03/03 07:22:39;;;;;;;42.00;26.30;;;5.60;99.90;;;5.03;100.00;96441.63;5059087;28;20502;-67
2024/03/03 07:25:09;;;;;;;42.60;29.10;;;5.70;99.90;;;4.60;100.00;96379.00;5041396;28;20548;-69
2024/03/03 07:27:37;;;;;;;42.93;28.10;;;5.70;99.90;;;4.96;100.00;96432.84;5060479;28;20452;-69
2024/03/03 07:30:07;;;;;;;41.70;26.03;;;5.70;99.90;;;5.21;100.00;96429.31;5041909;28;20970;-69
2024/03/03 07:32:38;;;;;;;38.23;26.03;;;5.80;99.90;;;5.45;100.00;96434.88;5059849;28;21020;-68
2024/03/03 07:35:06;;;;;;;42.00;27.83;;;6.00;99.90;;;5.71;100.00;96439.13;5062470;28;20461;-68
2024/03/03 07:37:34;;;;;;;40.33;26.80;;;6.20;99.90;;;5.59;100.00;96435.56;5061411;28;20464;-68
2024/03/03 07:40:01;;;;;;;39.70;27.20;;;6.20;98.00;;;5.37;100.00;96434.13;5058338;28;20453;-68
2024/03/03 07:42:31;;;;;;;40.07;27.30;;;6.10;96.70;;;5.29;100.00;96430.91;5060248;28;20480;-68
2024/03/03 07:45:06;;;;;;;38.70;26.27;;;6.00;96.70;;;5.13;100.00;96410.88;5063591;28;20461;-68
2024/03/03 07:47:35;;;;;;;40.20;26.30;;;5.90;97.20;;;5.26;100.00;96418.78;5057772;28;20457;-69
2024/03/03 07:50:04;;;;;;;40.27;26.23;;;6.00;97.80;;;5.30;100.00;96427.19;5057509;28;20465;-70
2024/03/03 07:52:33;;;;;;;40.90;26.53;;;6.00;97.60;;;5.42;100.00;96432.66;5059504;28;20463;-69
2024/03/03 07:55:00;;;;;;;38.73;25.10;;;6.10;97.80;;;5.64;100.00;96420.44;5056933;28;20449;-70
2024/03/03 07:57:27;;;;;;;36.73;23.63;;;6.20;98.20;;;5.77;100.00;96416.81;5057228;28;20440;-68
2024/03/03 07:59:57;;;;;;;39.13;25.67;;;6.40;97.50;;;5.93;100.00;96415.38;5054388;28;20465;-70
2024/03/03 08:02:24;;;;;;;33.50;24.27;;;6.50;96.30;;;6.14;99.91;96421.34;5059092;28;20589;-69
2024/03/03 08:04:56;;;;;;;35.70;25.00;;;6.70;95.50;;;6.24;99.08;96415.44;5059565;28;22800;-70
2024/03/03 08:07:24;;;;;;;37.07;25.27;;;6.90;94.90;;;6.19;98.58;96418.81;5061511;28;20456;-67
2024/03/03 08:09:51;;;;;;;31.93;23.03;;;6.90;93.60;;;6.33;97.66;96413.28;5056802;28;21137;-69
2024/03/03 08:12:23;;;;;;;31.93;23.43;;;7.10;93.20;;;6.47;97.19;96417.41;5051604;28;21020;-68
2024/03/03 08:14:51;;;;;;;31.20;23.87;;;7.10;93.10;;;6.34;96.51;96355.88;5056669;28;20452;-69
2024/03/03 08:17:20;;;;;;;30.87;22.17;;;7.30;93.50;;;6.77;95.03;96413.88;5055568;28;20461;-69
2024/03/03 08:19:48;;;;;;;30.43;22.13;;;7.40;92.40;;;6.66;94.58;96417.34;5062623;28;20459;-69
2024/03/03 08:22:18;;;;;;;31.37;21.50;;;7.50;91.50;;;6.76;94.02;96409.53;5058796;28;20484;-68
2024/03/03 08:24:47;;;;;;;26.47;19.37;;;7.50;91.30;;;6.80;93.44;96404.50;5055777;28;20468;-68
2024/03/03 08:27:14;;;;;;;28.03;21.20;;;7.60;91.00;;;6.96;93.04;96411.09;5055192;28;20460;-68
2024/03/03 08:29:42;;;;;;;29.27;20.77;;;7.60;91.00;;;7.10;92.25;96406.28;5060012;28;20603;-68
2024/03/03 08:32:13;;;;;;;25.20;21.43;;;7.70;90.70;;;7.19;90.80;96415.66;5060803;28;20500;-69
2024/03/03 08:34:43;;;;;;;29.30;20.90;;;7.80;90.60;;;7.21;90.86;96407.38;5064866;28;20547;-68
2024/03/03 08:37:11;;;;;;;25.50;19.27;;;7.90;90.30;;;7.43;89.73;96412.16;5067281;28;20437;-69
2024/03/03 08:39:48;;;;;;;28.53;21.30;;;8.00;90.20;;;7.48;89.53;96398.81;5065415;28;20457;-71
2024/03/03 08:42:18;;;;;;;24.80;20.90;;;8.20;90.00;;;7.60;88.79;96394.25;5056923;28;21282;-68
2024/03/03 08:44:55;;;;;;;22.77;18.70;;;8.30;89.60;;;7.71;88.28;96389.09;5065142;28;20845;-68
2024/03/03 08:47:23;;;;;;;25.07;18.23;;;8.40;89.30;;;7.82;87.49;96390.13;5064954;28;20455;-78
2024/03/03 08:49:51;;;;;;;26.00;17.70;;;8.50;88.60;;;8.03;86.58;96397.53;5063238;28;20461;-70
2024/03/03 08:52:18;;;;;;;24.83;17.40;;;8.60;88.70;;;8.03;87.38;96396.72;5062105;28;20468;-70
2024/03/03 08:54:51;;;;;;;20.73;16.47;;;8.70;88.00;;;8.12;85.75;96399.84;5085457;28;20445;-66
2024/03/03 08:57:21;;;;;;;21.20;17.23;;;8.80;87.50;;;8.47;83.54;96407.78;5059985;28;20542;-68
2024/03/03 08:59:49;;;;;;;22.17;16.50;;;8.90;87.10;;;8.61;82.59;96381.41;5059162;28;20954;-69
2024/03/03 09:02:17;;;;;;;21.40;16.20;;;9.10;86.70;;;8.70;81.93;96402.56;5063102;28;20969;-69
2024/03/03 09:04:44;;;;;;;20.80;16.50;;;9.20;86.40;;;8.87;81.23;96397.16;5059978;28;20468;-72
2024/03/03 09:07:11;;;;;;;21.23;15.20;;;9.40;86.00;;;9.10;79.22;96398.09;5073440;28;20453;-71
2024/03/03 09:09:39;;;;;;;14.10;12.60;;;9.60;84.90;;;9.25;78.34;96390.22;5057891;28;20460;-74
2024/03/03 09:12:12;;;;;;;13.10;11.53;;;9.70;84.30;;;9.30;75.03;96393.00;5055490;28;20823;-72
2024/03/03 09:14:39;;;;;;;15.30;12.20;;;9.90;82.60;;;9.52;74.40;96389.53;5062256;28;20751;-74
2024/03/03 09:17:07;;;;;;;13.50;11.47;;;10.00;80.90;;;9.75;72.67;96384.97;5051552;28;20487;-74
2024/03/03 09:19:35;;;;;;;15.20;11.50;;;10.20;80.20;;;10.00;71.14;96378.28;5053641;28;20459;-72
2024/03/03 09:22:02;;;;;;;12.77;10.87;;;10.30;79.50;;;9.96;70.25;96377.16;5055572;28;22093;-74
2024/03/03 09:24:29;;;;;;;11.07;9.93;;;10.50;78.50;;;9.92;69.12;96385.72;5063933;28;20454;-72
2024/03/03 09:26:57;;;;;;;13.07;9.87;;;10.60;77.40;;;10.13;67.48;96394.09;5064012;28;20460;-79
2024/03/03 09:29:26;;;;;;;10.70;8.83;;;10.60;76.70;;;10.11;67.35;96382.72;5057848;28;20458;-73
2024/03/03 09:31:53;;;;;;;11.97;9.77;;;10.70;76.50;;;10.26;67.88;96367.78;5060532;28;20464;-73
2024/03/03 09:34:20;;;;;;;12.03;9.57;;;10.80;76.70;;;10.39;66.74;96386.28;5062395;28;20479;-74
2024/03/03 09:36:49;;;;;;;10.20;8.40;;;10.90;75.60;;;10.48;65.83;96383.97;5061540;28;20825;-70
2024/03/03 09:39:18;;;;;;;11.50;9.20;;;11.00;75.30;;;10.51;65.71;96378.03;5061950;28;20983;-72
2024/03/03 09:41:49;;;;;;;11.70;8.87;;;11.10;74.90;;;10.38;66.83;96368.41;5058570;28;20471;-71
2024/03/03 09:44:20;;;;;;;13.23;8.80;;;11.10;75.20;;;10.53;65.48;96385.88;5059240;28;20472;-72
2024/03/03 09:46:49;;;;;;;10.37;8.93;;;11.10;74.60;;;10.48;66.22;96378.56;5042757;28;20447;-71
2024/03/03 09:49:20;;;;;;;10.37;8.20;;;11.10;74.60;;;10.58;66.26;96373.22;5055889;28;20949;-72
2024/03/03 09:51:49;;;;;;;10.77;8.40;;;11.10;74.60;;;10.93;63.31;96378.41;5057000;28;20738;-71
2024/03/03 09:54:19;;;;;;;9.27;7.10;;;11.40;73.20;;;10.64;61.91;96328.19;5059675;28;20460;-72
2024/03/03 09:56:48;;;;;;;8.40;7.50;;;11.50;72.20;;;11.17;62.74;96378.88;5057190;28;20991;-72
2024/03/03 09:59:16;;;;;;;8.90;8.00;;;11.60;73.20;;;11.37;62.10;96377.38;5053619;28;20835;-72
2024/03/03 10:01:51;;;;;;;8.33;7.40;;;11.80;72.60;;;11.59;60.62;96375.31;5066198;28;20519;-75
2024/03/03 10:04:19;;;;;;;9.50;7.40;;;12.00;71.70;;;11.70;60.92;96378.09;5051953;28;20473;-73
2024/03/03 10:06:52;;;;;;;9.87;6.63;;;12.10;71.60;;;11.48;60.04;96371.75;5059211;28;20459;-76
2024/03/03 10:09:20;;;;;;;8.60;7.70;;;12.10;70.60;;;11.52;58.85;96374.75;5060701;28;20463;-75
2024/03/03 10:11:49;;;;;;;12.00;7.23;;;12.10;69.60;;;11.60;58.68;96366.16;5061537;28;20539;-75
2024/03/03 10:14:17;;;;;;;9.03;7.30;;;12.20;69.40;;;11.48;58.45;96363.63;5063430;28;20946;-75
2024/03/03 10:16:44;;;;;;;8.00;7.07;;;12.10;68.60;;;11.61;58.42;96370.50;5064187;28;20455;-75
2024/03/03 10:19:13;;;;;;;8.30;7.20;;;12.20;68.70;;;11.75;58.20;96372.69;5061743;28;20463;-76